createdAt,value
2018-02-17T00:00:04.663Z,26.00
2018-02-17T00:02:32.600Z,21.73
2018-02-17T00:05:00.597Z,23.63
2018-02-17T00:07:28.547Z,27.20
2018-02-17T00:09:56.843Z,20.43
2018-02-17T00:12:24.893Z,40.67
2018-02-17T00:14:52.854Z,37.43
2018-02-17T00:17:20.775Z,29.23
2018-02-17T00:19:48.733Z,24.90
2018-02-17T00:22:16.760Z,27.63
2018-02-17T00:24:44.770Z,28.93
2018-02-17T00:27:12.760Z,31.00
2018-02-17T00:29:40.704Z,28.17
2018-02-17T00:32:08.651Z,24.10
2018-02-17T00:34:36.594Z,27.50
2018-02-17T00:37:04.586Z,23.60
2018-02-17T00:39:32.535Z,16.57
2018-02-17T00:42:00.472Z,26.03
2018-02-17T00:44:28.421Z,22.73
2018-02-17T00:46:56.387Z,21.20
2018-02-17T00:49:24.353Z,23.50
2018-02-17T00:51:52.301Z,15.83
2018-02-17T00:54:20.252Z,20.43
2018-02-17T00:56:48.214Z,21.40
2018-02-17T00:59:16.126Z,17.90
2018-02-17T01:01:43.992Z,21.17
2018-02-17T01:04:11.965Z,20.83
2018-02-17T01:06:39.919Z,22.70
2018-02-17T01:09:07.889Z,23.67
2018-02-17T01:11:36.607Z,20.83
2018-02-17T01:14:04.583Z,30.00
2018-02-17T01:16:32.645Z,21.17
2018-02-17T01:19:00.616Z,20.77
2018-02-17T01:21:28.555Z,23.70
2018-02-17T01:23:56.682Z,19.67
2018-02-17T01:26:24.630Z,14.97
2018-02-17T01:28:52.555Z,24.13
2018-02-17T01:31:20.431Z,23.17
2018-02-17T01:33:48.447Z,25.97
2018-02-17T01:36:16.391Z,22.43
2018-02-17T01:38:44.416Z,27.57
2018-02-17T01:41:12.350Z,28.80
2018-02-17T01:43:40.283Z,23.73
2018-02-17T01:46:08.256Z,25.80
2018-02-17T01:48:36.203Z,28.50
2018-02-17T01:51:04.207Z,25.67
2018-02-17T01:53:32.233Z,20.33
2018-02-17T01:56:00.201Z,17.50
2018-02-17T01:58:28.177Z,16.87
2018-02-17T02:00:56.110Z,15.40
2018-02-17T02:03:24.055Z,14.37
2018-02-17T02:05:51.974Z,12.60
2018-02-17T02:08:19.913Z,16.10
2018-02-17T02:10:47.887Z,11.97
2018-02-17T02:13:16.239Z,19.17
2018-02-17T02:15:44.167Z,10.80
2018-02-17T02:18:12.100Z,11.97
2018-02-17T02:20:40.060Z,16.20
2018-02-17T02:23:08.031Z,11.80
2018-02-17T02:25:36.059Z,11.70
2018-02-17T02:28:04.005Z,9.03
2018-02-17T02:30:32.003Z,8.70
2018-02-17T02:32:59.943Z,10.00
2018-02-17T02:35:27.903Z,29.30
2018-02-17T02:37:55.924Z,25.10
2018-02-17T02:40:24.002Z,15.10
2018-02-17T02:42:51.906Z,15.03
2018-02-17T02:45:21.185Z,13.03
2018-02-17T02:47:49.158Z,15.87
2018-02-17T02:50:17.174Z,16.20
2018-02-17T02:52:45.116Z,10.70
2018-02-17T02:55:13.074Z,10.03
2018-02-17T02:57:41.015Z,13.70
2018-02-17T03:00:08.968Z,16.63
2018-02-17T03:02:36.983Z,24.80
2018-02-17T03:05:04.948Z,8.37
2018-02-17T03:07:32.902Z,10.30
2018-02-17T03:10:00.886Z,15.03
2018-02-17T03:12:28.778Z,11.33
2018-02-17T03:14:57.225Z,16.93
2018-02-17T03:17:25.199Z,15.30
2018-02-17T03:19:53.203Z,23.80
2018-02-17T03:22:21.096Z,21.53
2018-02-17T03:24:48.983Z,15.23
2018-02-17T03:27:16.902Z,24.50
2018-02-17T03:29:44.904Z,13.60
2018-02-17T03:32:12.886Z,14.13
2018-02-17T03:34:40.866Z,17.60
2018-02-17T03:37:08.803Z,12.93
2018-02-17T03:39:36.708Z,17.63
2018-02-17T03:42:04.682Z,16.83
2018-02-17T03:44:32.655Z,18.03
2018-02-17T03:47:00.565Z,14.60
2018-02-17T03:49:28.486Z,15.40
2018-02-17T03:51:56.430Z,31.60
2018-02-17T03:54:24.422Z,15.80
2018-02-17T03:56:52.325Z,21.20
2018-02-17T03:59:20.290Z,20.40
2018-02-17T04:01:48.233Z,18.23
2018-02-17T04:04:16.223Z,20.40
2018-02-17T04:06:44.214Z,29.63
2018-02-17T04:09:12.124Z,42.87
2018-02-17T04:11:40.098Z,28.83
2018-02-17T04:14:08.019Z,35.93
2018-02-17T04:16:36.398Z,40.80
2018-02-17T04:19:04.350Z,34.70
2018-02-17T04:21:32.288Z,34.60
2018-02-17T04:24:00.310Z,24.47
2018-02-17T04:26:28.290Z,22.60
2018-02-17T04:28:56.250Z,27.70
2018-02-17T04:31:24.153Z,31.67
2018-02-17T04:33:52.116Z,28.43
2018-02-17T04:36:20.085Z,40.70
2018-02-17T04:38:48.049Z,30.63
2018-02-17T04:44:45.375Z,36.97
2018-02-17T04:50:25.375Z,76.90
2018-02-17T04:56:14.083Z,42.90
2018-02-17T04:58:42.153Z,43.30
2018-02-17T05:01:12.002Z,43.10
2018-02-17T05:03:58.933Z,54.07
2018-02-17T05:06:42.035Z,34.80
2018-02-17T05:09:10.335Z,23.37
2018-02-17T05:11:38.705Z,28.00
2018-02-17T05:17:18.400Z,25.73
2018-02-17T05:19:51.938Z,21.57
2018-02-17T05:22:34.152Z,23.10
2018-02-17T05:25:07.350Z,26.50
2018-02-17T05:27:38.490Z,40.70
2018-02-17T05:30:09.110Z,88.70
2018-02-17T05:35:46.268Z,59.73
2018-02-17T05:38:15.046Z,50.20
2018-02-17T05:40:43.817Z,38.90
2018-02-17T05:43:12.918Z,42.63
2018-02-17T05:45:45.683Z,47.73
2018-02-17T05:48:13.755Z,80.47
2018-02-17T05:50:41.756Z,92.40
2018-02-17T05:53:09.804Z,85.83
2018-02-17T05:55:37.844Z,102.60
2018-02-17T05:58:06.340Z,153.50
2018-02-17T06:00:34.827Z,133.30
2018-02-17T06:03:03.307Z,156.57
2018-02-17T06:05:31.575Z,182.57
2018-02-17T06:07:59.962Z,191.03
2018-02-17T06:10:28.268Z,150.93
2018-02-17T06:12:56.705Z,123.90
2018-02-17T06:15:24.618Z,110.03
2018-02-17T06:17:53.257Z,110.67
2018-02-17T06:20:21.273Z,114.07
2018-02-17T06:22:49.232Z,129.23
2018-02-17T06:25:17.266Z,137.73
2018-02-17T06:27:45.185Z,135.33
2018-02-17T06:30:13.191Z,138.27
2018-02-17T06:32:41.148Z,163.73
2018-02-17T06:35:09.102Z,159.90
2018-02-17T06:37:37.131Z,141.73
2018-02-17T06:40:05.106Z,111.23
2018-02-17T06:42:33.355Z,71.43
2018-02-17T06:45:01.916Z,73.53
2018-02-17T06:47:30.119Z,62.23
2018-02-17T06:49:58.089Z,53.43
2018-02-17T06:52:26.250Z,57.83
2018-02-17T06:54:54.625Z,58.00
2018-02-17T06:57:23.109Z,56.10
2018-02-17T06:59:51.315Z,94.07
2018-02-17T07:02:19.688Z,53.27
2018-02-17T07:04:47.739Z,52.43
2018-02-17T07:07:15.661Z,97.87
2018-02-17T07:09:44.877Z,44.33
2018-02-17T07:12:12.918Z,118.70
2018-02-17T07:14:40.937Z,77.90
2018-02-17T07:17:08.987Z,73.20
2018-02-17T07:19:37.279Z,82.80
2018-02-17T07:22:05.491Z,67.47
2018-02-17T07:24:33.643Z,63.60
2018-02-17T07:27:01.948Z,76.67
2018-02-17T07:29:30.121Z,114.60
2018-02-17T07:31:58.497Z,124.90
2018-02-17T07:34:27.033Z,61.27
2018-02-17T07:36:56.192Z,44.40
2018-02-17T07:39:25.140Z,54.20
2018-02-17T07:41:53.511Z,36.57
2018-02-17T07:44:21.880Z,44.73
2018-02-17T07:46:50.025Z,38.77
2018-02-17T07:49:18.526Z,25.33
2018-02-17T07:51:47.531Z,48.67
2018-02-17T07:54:15.818Z,43.53
2018-02-17T07:56:44.694Z,50.13
2018-02-17T07:59:12.935Z,58.37
2018-02-17T08:01:41.398Z,61.60
2018-02-17T08:04:10.239Z,115.90
2018-02-17T08:06:38.286Z,34.63
2018-02-17T08:09:06.434Z,42.57
2018-02-17T08:11:34.759Z,33.27
2018-02-17T08:14:03.136Z,50.10
2018-02-17T08:16:31.406Z,56.03
2018-02-17T08:18:59.680Z,57.07
2018-02-17T08:21:27.875Z,129.23
2018-02-17T08:23:56.257Z,92.17
2018-02-17T08:26:24.326Z,42.50
2018-02-17T08:28:52.366Z,34.27
2018-02-17T08:31:20.334Z,37.73
2018-02-17T08:33:48.262Z,30.20
2018-02-17T08:36:17.293Z,30.50
2018-02-17T08:38:45.230Z,38.17
2018-02-17T08:41:13.201Z,29.40
2018-02-17T08:43:41.165Z,42.67
2018-02-17T08:46:09.182Z,33.30
2018-02-17T08:48:37.115Z,44.00
2018-02-17T08:51:05.093Z,50.27
2018-02-17T08:53:33.168Z,31.20
2018-02-17T08:56:01.204Z,32.67
2018-02-17T08:58:29.738Z,32.57
2018-02-17T09:00:58.063Z,32.70
2018-02-17T09:03:26.066Z,30.10
2018-02-17T09:05:54.461Z,146.70
2018-02-17T09:08:22.519Z,62.03
2018-02-17T09:10:50.588Z,38.50
2018-02-17T09:13:18.567Z,23.50
2018-02-17T09:15:46.551Z,21.93
2018-02-17T09:18:15.124Z,19.53
2018-02-17T09:20:43.113Z,21.63
2018-02-17T09:23:11.085Z,17.63
2018-02-17T09:25:39.082Z,33.90
2018-02-17T09:28:07.123Z,28.03
2018-02-17T09:30:35.207Z,16.30
2018-02-17T09:33:03.243Z,20.83
2018-02-17T09:35:31.864Z,33.13
2018-02-17T09:37:59.901Z,16.30
2018-02-17T09:40:27.896Z,13.63
2018-02-17T09:42:55.869Z,15.50
2018-02-17T09:45:23.868Z,28.50
2018-02-17T09:47:51.831Z,14.33
2018-02-17T09:50:19.752Z,9.37
2018-02-17T09:52:47.811Z,10.33
2018-02-17T09:55:15.765Z,15.43
2018-02-17T09:57:43.689Z,10.73
2018-02-17T10:00:11.691Z,18.83
2018-02-17T10:02:39.654Z,29.50
2018-02-17T10:05:07.571Z,25.23
2018-02-17T10:07:36.040Z,13.77
2018-02-17T10:10:04.041Z,8.93
2018-02-17T10:12:32.012Z,8.63
2018-02-17T10:15:00.015Z,12.50
2018-02-17T10:17:27.978Z,8.20
2018-02-17T10:19:55.959Z,20.10
2018-02-17T10:22:23.941Z,9.13
2018-02-17T10:24:51.919Z,11.03
2018-02-17T10:27:19.859Z,22.73
2018-02-17T10:29:47.886Z,12.77
2018-02-17T10:32:15.818Z,10.07
2018-02-17T10:34:43.869Z,33.17
2018-02-17T10:37:11.803Z,7.10
2018-02-17T10:39:39.746Z,8.07
2018-02-17T10:42:07.734Z,7.37
2018-02-17T10:44:35.680Z,9.50
2018-02-17T10:47:03.611Z,7.70
2018-02-17T10:49:31.506Z,4.60
2018-02-17T10:51:59.461Z,4.43
2018-02-17T10:54:27.417Z,6.57
2018-02-17T10:56:55.338Z,7.23
2018-02-17T10:59:23.299Z,5.83
2018-02-17T11:01:51.281Z,10.33
2018-02-17T11:04:19.246Z,83.43
2018-02-17T11:06:47.218Z,44.33
2018-02-17T11:09:15.458Z,19.13
2018-02-17T11:11:43.414Z,16.23
2018-02-17T11:14:11.362Z,8.73
2018-02-17T11:16:39.352Z,12.90
2018-02-17T11:19:07.397Z,10.83
2018-02-17T11:21:35.430Z,8.13
2018-02-17T11:24:03.330Z,12.07
2018-02-17T11:26:31.325Z,20.73
2018-02-17T11:28:59.275Z,13.53
2018-02-17T11:31:27.285Z,9.37
2018-02-17T11:33:55.235Z,10.37
2018-02-17T11:36:23.131Z,15.50
2018-02-17T11:38:51.105Z,15.53
2018-02-17T11:41:19.191Z,8.30
2018-02-17T11:43:47.348Z,12.20
2018-02-17T11:46:15.514Z,5.50
2018-02-17T11:48:43.646Z,5.93
2018-02-17T11:51:11.840Z,24.53
2018-02-17T11:53:39.976Z,6.00
2018-02-17T11:56:08.069Z,29.47
2018-02-17T11:58:36.230Z,5.63
2018-02-17T12:01:04.395Z,7.50
2018-02-17T12:03:32.534Z,7.10
2018-02-17T12:06:00.713Z,6.87
2018-02-17T12:08:28.948Z,6.00
2018-02-17T12:10:57.564Z,7.30
2018-02-17T12:13:25.754Z,8.63
2018-02-17T12:15:53.833Z,5.90
2018-02-17T12:18:22.153Z,9.43
2018-02-17T12:20:50.275Z,5.37
2018-02-17T12:23:18.422Z,8.13
2018-02-17T12:25:46.627Z,21.80
2018-02-17T12:28:14.829Z,12.47
2018-02-17T12:30:43.017Z,8.00
2018-02-17T12:33:11.196Z,7.37
2018-02-17T12:35:39.464Z,7.37
2018-02-17T12:38:07.625Z,5.97
2018-02-17T12:40:35.645Z,6.80
2018-02-17T12:43:03.603Z,7.30
2018-02-17T12:45:31.541Z,9.70
2018-02-17T12:47:59.438Z,10.30
2018-02-17T12:50:27.418Z,5.30
2018-02-17T12:52:55.396Z,5.27
2018-02-17T12:55:23.369Z,5.13
2018-02-17T12:57:51.283Z,8.40
2018-02-17T13:00:19.291Z,10.37
2018-02-17T13:02:47.299Z,12.20
2018-02-17T13:05:15.324Z,13.33
2018-02-17T13:07:43.386Z,7.77
2018-02-17T13:10:11.377Z,5.60
2018-02-17T13:12:39.903Z,12.47
2018-02-17T13:15:07.883Z,42.57
2018-02-17T13:17:35.810Z,8.67
2018-02-17T13:20:03.782Z,4.20
2018-02-17T13:22:31.706Z,4.47
2018-02-17T13:24:59.695Z,8.80
2018-02-17T13:27:27.634Z,12.33
2018-02-17T13:29:55.639Z,20.63
2018-02-17T13:32:23.631Z,20.90
2018-02-17T13:34:51.615Z,7.27
2018-02-17T13:37:19.627Z,4.57
2018-02-17T13:39:47.560Z,7.03
2018-02-17T13:42:15.527Z,6.00
2018-02-17T13:44:43.475Z,8.53
2018-02-17T13:47:11.435Z,8.13
2018-02-17T13:49:39.344Z,12.17
2018-02-17T13:52:07.292Z,8.87
2018-02-17T13:54:35.328Z,18.23
2018-02-17T13:57:03.389Z,21.57
2018-02-17T13:59:31.357Z,26.17
2018-02-17T14:01:59.357Z,6.67
2018-02-17T14:04:27.347Z,6.17
2018-02-17T14:06:55.346Z,20.87
2018-02-17T14:09:23.264Z,22.00
2018-02-17T14:11:51.185Z,11.17
2018-02-17T14:14:19.722Z,8.50
2018-02-17T14:16:47.672Z,27.33
2018-02-17T14:19:15.649Z,14.47
2018-02-17T14:21:43.629Z,11.23
2018-02-17T14:24:11.591Z,10.33
2018-02-17T14:26:39.565Z,14.40
2018-02-17T14:29:07.616Z,10.03
2018-02-17T14:31:35.653Z,17.73
2018-02-17T14:34:03.641Z,20.47
2018-02-17T14:36:31.554Z,50.30
2018-02-17T14:38:59.540Z,36.50
2018-02-17T14:41:27.519Z,12.63
2018-02-17T14:43:55.425Z,33.43
2018-02-17T14:46:23.435Z,31.00
2018-02-17T14:48:51.481Z,26.50
2018-02-17T14:51:19.604Z,32.23
2018-02-17T14:53:47.651Z,13.77
2018-02-17T14:56:15.626Z,17.30
2018-02-17T14:58:43.671Z,33.87
2018-02-17T15:01:11.640Z,32.57
2018-02-17T15:03:39.618Z,35.60
2018-02-17T15:06:07.536Z,68.23
2018-02-17T15:08:35.525Z,52.77
2018-02-17T15:11:03.513Z,55.63
2018-02-17T15:13:31.383Z,192.03
2018-02-17T15:15:59.904Z,94.47
2018-02-17T15:18:27.862Z,102.97
2018-02-17T15:20:55.864Z,100.97
2018-02-17T15:23:23.875Z,92.40
2018-02-17T15:25:51.869Z,82.80
2018-02-17T15:28:19.798Z,71.07
2018-02-17T15:30:47.780Z,69.23
2018-02-17T15:33:15.691Z,83.93
2018-02-17T15:35:43.678Z,110.73
2018-02-17T15:38:11.539Z,82.37
2018-02-17T15:40:39.542Z,88.23
2018-02-17T15:43:07.470Z,114.80
2018-02-17T15:45:35.507Z,99.20
2018-02-17T15:48:03.435Z,79.63
2018-02-17T15:50:31.333Z,54.70
2018-02-17T15:52:59.358Z,71.73
2018-02-17T15:55:27.353Z,59.30
2018-02-17T15:57:55.404Z,52.70
2018-02-17T16:00:23.434Z,26.33
2018-02-17T16:02:51.403Z,21.27
2018-02-17T16:05:19.450Z,21.43
2018-02-17T16:07:47.396Z,23.23
2018-02-17T16:10:15.414Z,17.37
2018-02-17T16:12:43.421Z,22.47
2018-02-17T16:15:11.484Z,27.57
2018-02-17T16:17:39.542Z,39.73
2018-02-17T16:20:07.538Z,67.90
2018-02-17T16:22:35.601Z,77.60
2018-02-17T16:25:03.530Z,76.40
2018-02-17T16:27:31.507Z,56.47
2018-02-17T16:29:59.484Z,58.37
2018-02-17T16:32:27.506Z,67.27
2018-02-17T16:34:55.476Z,66.37
2018-02-17T16:37:23.414Z,65.70
2018-02-17T16:39:51.421Z,52.87
2018-02-17T16:42:19.410Z,43.97
2018-02-17T16:44:47.377Z,51.47
2018-02-17T16:47:15.406Z,53.13
2018-02-17T16:49:43.339Z,59.60
2018-02-17T16:52:11.326Z,114.80
2018-02-17T16:54:39.256Z,46.57
2018-02-17T16:57:07.197Z,65.00
2018-02-17T16:59:35.138Z,44.20
2018-02-17T17:02:03.043Z,42.90
2018-02-17T17:04:31.021Z,52.30
2018-02-17T17:06:58.999Z,51.00
2018-02-17T17:09:26.973Z,67.90
2018-02-17T17:11:54.989Z,58.33
2018-02-17T17:14:22.956Z,66.97
2018-02-17T17:16:50.907Z,75.50
2018-02-17T17:19:19.116Z,68.63
2018-02-17T17:21:47.128Z,59.37
2018-02-17T17:24:15.123Z,60.00
2018-02-17T17:26:43.209Z,65.33
2018-02-17T17:29:11.180Z,61.30
2018-02-17T17:31:39.214Z,51.73
2018-02-17T17:34:07.134Z,60.30
2018-02-17T17:36:35.094Z,57.60
2018-02-17T17:39:03.109Z,71.37
2018-02-17T17:41:31.074Z,74.50
2018-02-17T17:44:00.314Z,58.93
2018-02-17T17:46:28.332Z,110.17
2018-02-17T17:48:56.257Z,114.53
2018-02-17T17:51:24.264Z,72.37
2018-02-17T17:53:52.278Z,85.00
2018-02-17T17:56:20.274Z,71.23
2018-02-17T17:58:48.226Z,77.73
2018-02-17T18:01:16.202Z,71.77
2018-02-17T18:03:44.163Z,90.50
2018-02-17T18:06:12.160Z,82.37
2018-02-17T18:08:40.191Z,98.90
2018-02-17T18:11:08.197Z,90.77
2018-02-17T18:13:36.413Z,117.27
2018-02-17T18:16:04.427Z,143.77
2018-02-17T18:18:32.459Z,112.87
2018-02-17T18:21:00.869Z,109.27
2018-02-17T18:23:29.002Z,97.00
2018-02-17T18:25:58.182Z,112.63
2018-02-17T18:28:26.195Z,116.67
2018-02-17T18:30:54.228Z,139.47
2018-02-17T18:33:22.266Z,119.90
2018-02-17T18:35:50.275Z,138.47
2018-02-17T18:38:18.214Z,160.50
2018-02-17T18:40:46.245Z,214.10
2018-02-17T18:43:14.224Z,282.80
2018-02-17T18:45:42.173Z,196.43
2018-02-17T18:48:10.161Z,175.60
2018-02-17T18:50:38.179Z,169.10
2018-02-17T18:53:06.127Z,186.03
2018-02-17T18:55:34.109Z,187.60
2018-02-17T18:58:02.100Z,139.20
2018-02-17T19:00:30.055Z,147.67
2018-02-17T19:02:58.054Z,148.30
2018-02-17T19:05:26.107Z,140.03
2018-02-17T19:07:55.016Z,129.10
2018-02-17T19:10:23.088Z,99.63
2018-02-17T19:12:51.183Z,143.17
2018-02-17T19:15:19.461Z,157.97
2018-02-17T19:17:47.507Z,195.77
2018-02-17T19:20:15.437Z,135.27
2018-02-17T19:22:43.573Z,123.63
2018-02-17T19:25:11.535Z,135.27
2018-02-17T19:27:39.550Z,129.80
2018-02-17T19:30:07.578Z,144.33
2018-02-17T19:32:36.237Z,146.47
2018-02-17T19:35:04.269Z,105.70
2018-02-17T19:37:32.307Z,111.80
2018-02-17T19:40:00.775Z,98.53
2018-02-17T19:42:28.801Z,108.50
2018-02-17T19:44:56.925Z,109.93
2018-02-17T19:47:24.988Z,113.13
2018-02-17T19:49:54.511Z,111.47
2018-02-17T19:52:22.571Z,101.37
2018-02-17T19:54:50.467Z,108.23
2018-02-17T19:57:18.660Z,108.10
2018-02-17T19:59:46.643Z,114.07
2018-02-17T20:02:14.632Z,108.97
2018-02-17T20:04:42.612Z,96.93
2018-02-17T20:07:10.677Z,112.50
2018-02-17T20:09:38.732Z,116.50
2018-02-17T20:12:06.742Z,108.13
2018-02-17T20:14:34.753Z,100.17
2018-02-17T20:17:02.961Z,97.13
2018-02-17T20:19:30.919Z,92.40
2018-02-17T20:21:58.928Z,79.50
2018-02-17T20:24:27.277Z,72.20
2018-02-17T20:26:56.358Z,72.67
2018-02-17T20:29:24.517Z,72.87
2018-02-17T20:31:52.512Z,65.73
2018-02-17T20:34:20.547Z,66.57
2018-02-17T20:36:48.660Z,80.17
2018-02-17T20:39:16.675Z,68.87
2018-02-17T20:41:44.595Z,64.97
2018-02-17T20:44:12.574Z,65.87
2018-02-17T20:46:40.506Z,73.90
2018-02-17T20:49:08.498Z,58.23
2018-02-17T20:51:37.439Z,67.00
2018-02-17T20:54:05.439Z,61.93
2018-02-17T20:56:33.377Z,52.03
2018-02-17T20:59:01.285Z,64.27
2018-02-17T21:01:29.329Z,59.87
2018-02-17T21:03:57.339Z,51.73
2018-02-17T21:06:25.330Z,58.13
2018-02-17T21:08:53.284Z,72.13
2018-02-17T21:11:21.336Z,62.30
2018-02-17T21:13:49.258Z,86.37
2018-02-17T21:16:17.239Z,97.90
2018-02-17T21:18:45.423Z,116.00
2018-02-17T21:21:13.441Z,121.07
2018-02-17T21:23:41.446Z,104.47
2018-02-17T21:26:10.162Z,110.97
2018-02-17T21:28:38.245Z,85.73
2018-02-17T21:31:06.256Z,98.67
2018-02-17T21:33:34.181Z,91.60
2018-02-17T21:36:02.109Z,76.90
2018-02-17T21:38:30.126Z,79.80
2018-02-17T21:40:58.767Z,56.53
2018-02-17T21:43:26.801Z,59.83
2018-02-17T21:45:54.733Z,52.97
2018-02-17T21:48:22.668Z,71.13
2018-02-17T21:50:50.648Z,58.70
2018-02-17T21:53:18.610Z,57.33
2018-02-17T21:55:46.571Z,74.07
2018-02-17T21:58:14.562Z,65.17
2018-02-17T22:00:42.537Z,64.30
2018-02-17T22:03:10.497Z,66.00
2018-02-17T22:05:38.447Z,63.87
2018-02-17T22:08:06.366Z,64.10
2018-02-17T22:10:34.341Z,78.37
2018-02-17T22:13:02.263Z,62.03
2018-02-17T22:15:30.159Z,77.90
2018-02-17T22:17:58.095Z,76.43
2018-02-17T22:20:26.251Z,76.50
2018-02-17T22:22:54.284Z,76.27
2018-02-17T22:25:22.229Z,62.00
2018-02-17T22:27:50.609Z,62.30
2018-02-17T22:30:18.490Z,91.80
2018-02-17T22:32:46.422Z,100.37
2018-02-17T22:35:14.395Z,95.13
2018-02-17T22:37:42.385Z,102.00
2018-02-17T22:40:10.390Z,94.87
2018-02-17T22:42:38.358Z,96.77
2018-02-17T22:45:06.320Z,98.93
2018-02-17T22:47:34.372Z,86.33
2018-02-17T22:50:02.297Z,85.50
2018-02-17T22:52:30.260Z,76.73
2018-02-17T22:54:58.218Z,72.27
2018-02-17T22:57:26.146Z,75.00
2018-02-17T22:59:54.131Z,78.90
2018-02-17T23:02:22.072Z,73.33
2018-02-17T23:04:49.993Z,81.47
2018-02-17T23:07:17.966Z,80.27
2018-02-17T23:09:45.975Z,50.80
2018-02-17T23:12:13.889Z,60.20
2018-02-17T23:14:41.922Z,51.60
2018-02-17T23:17:09.907Z,62.00
2018-02-17T23:19:38.034Z,56.43
2018-02-17T23:22:06.212Z,64.40
2018-02-17T23:24:34.222Z,48.10
2018-02-17T23:27:02.218Z,51.63
2018-02-17T23:29:30.435Z,61.03
2018-02-17T23:31:58.611Z,63.60
2018-02-17T23:34:26.592Z,63.77
2018-02-17T23:36:54.545Z,68.77
2018-02-17T23:39:22.489Z,82.03
2018-02-17T23:41:50.438Z,65.77
2018-02-17T23:44:18.442Z,63.20
2018-02-17T23:46:46.418Z,66.03
2018-02-17T23:49:14.378Z,59.43
2018-02-17T23:51:42.327Z,62.10
2018-02-17T23:54:10.302Z,67.50
2018-02-17T23:56:38.243Z,63.30
2018-02-17T23:59:06.181Z,69.63
